Plymouth, Iowa
Current Conditions -  °F | °C
As of 1:53 AM on Thursday 29 Jan 2015 (Local Time) from KMCW Reporting Station
Haze Haze  
Wind Chill: 21°   Ceiling: 1100
Heat Index: 33°   Visibility: 6mi
Dew Point: 30°   Wind: 22mph
Humidity: 89%   Direction: 340°NNW
Pressure: 29.87"   Gusts: 32mph
Location:  43.25°N, 93.12°W
Report Text: KMCW 290753Z AUTO 34019G28KT 6SM BR OVC011 01/M01 A2987 RMK AO2 PK WND 34031/0712 CIG 009V015 SLP121 T00061011 $
Loading
Personal Weather Stations






























Interactive Weather Map New forecast layout! Learn more

10-Day Weather Forecast

Advertisements
Track Severe Weather on mobile